sensor_id;sensor_type;location;lat;lon;timestamp;P1;durP1;ratioP1;P2;durP2;ratioP2
65368;SDS011;51970;53.484;49.488;2023-03-01T00:01:17;10.85;;;5.57;;
65368;SDS011;51970;53.484;49.488;2023-03-01T00:03:45;8.38;;;4.80;;
65368;SDS011;51970;53.484;49.488;2023-03-01T00:06:11;9.52;;;5.15;;
65368;SDS011;51970;53.484;49.488;2023-03-01T00:08:38;11.65;;;5.82;;
65368;SDS011;51970;53.484;49.488;2023-03-01T00:13:41;9.15;;;4.63;;
65368;SDS011;51970;53.484;49.488;2023-03-01T00:16:09;11.48;;;5.68;;
65368;SDS011;51970;53.484;49.488;2023-03-01T00:18:38;13.98;;;5.78;;
65368;SDS011;51970;53.484;49.488;2023-03-01T00:21:04;11.52;;;5.03;;
65368;SDS011;51970;53.484;49.488;2023-03-01T00:23:31;10.18;;;4.95;;
65368;SDS011;51970;53.484;49.488;2023-03-01T00:25:59;10.35;;;5.32;;
65368;SDS011;51970;53.484;49.488;2023-03-01T00:28:25;9.70;;;3.83;;
65368;SDS011;51970;53.484;49.488;2023-03-01T00:30:51;10.45;;;5.03;;
65368;SDS011;51970;53.484;49.488;2023-03-01T00:33:18;11.15;;;5.70;;
65368;SDS011;51970;53.484;49.488;2023-03-01T00:35:44;8.55;;;4.50;;
65368;SDS011;51970;53.484;49.488;2023-03-01T00:38:10;6.60;;;3.50;;
65368;SDS011;51970;53.484;49.488;2023-03-01T00:40:36;11.38;;;5.93;;
65368;SDS011;51970;53.484;49.488;2023-03-01T00:43:03;6.57;;;3.67;;
65368;SDS011;51970;53.484;49.488;2023-03-01T00:45:29;9.98;;;3.13;;
65368;SDS011;51970;53.484;49.488;2023-03-01T00:47:58;9.20;;;3.88;;
65368;SDS011;51970;53.484;49.488;2023-03-01T00:50:25;10.60;;;4.13;;
65368;SDS011;51970;53.484;49.488;2023-03-01T00:52:54;6.57;;;3.13;;
65368;SDS011;51970;53.484;49.488;2023-03-01T00:55:21;9.20;;;5.55;;
65368;SDS011;51970;53.484;49.488;2023-03-01T00:57:48;12.95;;;5.28;;
65368;SDS011;51970;53.484;49.488;2023-03-01T01:00:14;9.85;;;4.90;;
65368;SDS011;51970;53.484;49.488;2023-03-01T01:02:40;7.00;;;3.40;;
65368;SDS011;51970;53.484;49.488;2023-03-01T01:05:06;6.88;;;3.92;;
65368;SDS011;51970;53.484;49.488;2023-03-01T01:07:33;6.63;;;3.17;;
65368;SDS011;51970;53.484;49.488;2023-03-01T01:09:59;7.32;;;2.78;;
65368;SDS011;51970;53.484;49.488;2023-03-01T01:12:25;11.57;;;4.68;;
65368;SDS011;51970;53.484;49.488;2023-03-01T01:14:51;5.50;;;2.65;;
65368;SDS011;51970;53.484;49.488;2023-03-01T01:17:17;8.40;;;4.57;;
65368;SDS011;51970;53.484;49.488;2023-03-01T01:19:44;7.80;;;4.57;;
65368;SDS011;51970;53.484;49.488;2023-03-01T01:22:10;10.60;;;5.30;;
65368;SDS011;51970;53.484;49.488;2023-03-01T01:24:36;9.05;;;4.28;;
65368;SDS011;51970;53.484;49.488;2023-03-01T01:27:02;9.50;;;5.35;;
65368;SDS011;51970;53.484;49.488;2023-03-01T01:29:29;7.82;;;3.83;;
65368;SDS011;51970;53.484;49.488;2023-03-01T01:31:55;9.27;;;4.63;;
65368;SDS011;51970;53.484;49.488;2023-03-01T01:34:21;9.13;;;4.85;;
65368;SDS011;51970;53.484;49.488;2023-03-01T01:36:48;6.72;;;3.92;;
65368;SDS011;51970;53.484;49.488;2023-03-01T01:39:15;6.90;;;4.50;;
65368;SDS011;51970;53.484;49.488;2023-03-01T01:41:42;9.65;;;4.70;;
65368;SDS011;51970;53.484;49.488;2023-03-01T01:44:24;12.23;;;5.68;;
65368;SDS011;51970;53.484;49.488;2023-03-01T01:49:32;9.13;;;4.40;;
65368;SDS011;51970;53.484;49.488;2023-03-01T01:52:14;10.23;;;4.50;;
65368;SDS011;51970;53.484;49.488;2023-03-01T01:54:50;9.82;;;4.70;;
65368;SDS011;51970;53.484;49.488;2023-03-01T01:57:36;11.32;;;5.28;;
65368;SDS011;51970;53.484;49.488;2023-03-01T02:00:07;9.85;;;4.75;;
65368;SDS011;51970;53.484;49.488;2023-03-01T02:02:45;7.15;;;4.07;;
65368;SDS011;51970;53.484;49.488;2023-03-01T02:05:16;7.75;;;4.13;;
65368;SDS011;51970;53.484;49.488;2023-03-01T02:07:54;12.18;;;4.50;;
65368;SDS011;51970;53.484;49.488;2023-03-01T02:10:22;12.70;;;7.60;;
65368;SDS011;51970;53.484;49.488;2023-03-01T02:12:50;13.73;;;4.97;;
65368;SDS011;51970;53.484;49.488;2023-03-01T02:15:17;8.48;;;4.03;;
65368;SDS011;51970;53.484;49.488;2023-03-01T02:17:43;11.85;;;6.50;;
65368;SDS011;51970;53.484;49.488;2023-03-01T02:23:17;12.10;;;5.65;;
65368;SDS011;51970;53.484;49.488;2023-03-01T02:25:54;11.65;;;5.82;;
65368;SDS011;51970;53.484;49.488;2023-03-01T02:28:40;6.97;;;3.20;;
65368;SDS011;51970;53.484;49.488;2023-03-01T02:31:09;11.30;;;5.18;;
65368;SDS011;51970;53.484;49.488;2023-03-01T02:33:57;14.13;;;6.07;;
65368;SDS011;51970;53.484;49.488;2023-03-01T02:36:28;9.25;;;4.72;;
65368;SDS011;51970;53.484;49.488;2023-03-01T02:38:58;9.35;;;4.30;;
65368;SDS011;51970;53.484;49.488;2023-03-01T02:41:26;12.70;;;6.28;;
65368;SDS011;51970;53.484;49.488;2023-03-01T02:43:56;11.30;;;5.43;;
65368;SDS011;51970;53.484;49.488;2023-03-01T02:46:24;11.05;;;4.97;;
65368;SDS011;51970;53.484;49.488;2023-03-01T02:48:57;12.75;;;4.93;;
65368;SDS011;51970;53.484;49.488;2023-03-01T02:56:28;8.88;;;5.63;;
65368;SDS011;51970;53.484;49.488;2023-03-01T02:58:55;12.55;;;5.22;;
65368;SDS011;51970;53.484;49.488;2023-03-01T03:01:26;14.93;;;6.28;;
65368;SDS011;51970;53.484;49.488;2023-03-01T03:04:07;10.75;;;4.38;;
65368;SDS011;51970;53.484;49.488;2023-03-01T03:06:43;15.40;;;8.57;;
65368;SDS011;51970;53.484;49.488;2023-03-01T03:09:10;10.07;;;4.00;;
65368;SDS011;51970;53.484;49.488;2023-03-01T03:11:37;10.32;;;5.35;;
65368;SDS011;51970;53.484;49.488;2023-03-01T03:14:08;11.48;;;5.20;;
65368;SDS011;51970;53.484;49.488;2023-03-01T03:16:42;12.40;;;6.13;;
65368;SDS011;51970;53.484;49.488;2023-03-01T03:19:10;11.10;;;5.18;;
65368;SDS011;51970;53.484;49.488;2023-03-01T03:21:37;10.85;;;5.05;;
65368;SDS011;51970;53.484;49.488;2023-03-01T03:24:03;8.73;;;4.15;;
65368;SDS011;51970;53.484;49.488;2023-03-01T03:26:30;10.88;;;5.40;;
65368;SDS011;51970;53.484;49.488;2023-03-01T03:28:57;12.98;;;5.10;;
65368;SDS011;51970;53.484;49.488;2023-03-01T03:31:24;12.43;;;5.80;;
65368;SDS011;51970;53.484;49.488;2023-03-01T03:33:51;9.40;;;5.30;;
65368;SDS011;51970;53.484;49.488;2023-03-01T03:36:21;7.95;;;3.83;;
65368;SDS011;51970;53.484;49.488;2023-03-01T03:38:49;10.45;;;5.28;;
65368;SDS011;51970;53.484;49.488;2023-03-01T03:41:16;11.93;;;5.88;;
65368;SDS011;51970;53.484;49.488;2023-03-01T03:43:42;10.65;;;5.07;;
65368;SDS011;51970;53.484;49.488;2023-03-01T03:46:09;10.65;;;5.30;;
65368;SDS011;51970;53.484;49.488;2023-03-01T03:48:37;12.07;;;6.38;;
65368;SDS011;51970;53.484;49.488;2023-03-01T03:51:13;7.95;;;4.05;;
65368;SDS011;51970;53.484;49.488;2023-03-01T03:53:44;9.60;;;4.65;;
65368;SDS011;51970;53.484;49.488;2023-03-01T03:56:11;9.13;;;4.80;;
65368;SDS011;51970;53.484;49.488;2023-03-01T03:58:38;10.05;;;5.25;;
65368;SDS011;51970;53.484;49.488;2023-03-01T04:01:04;12.02;;;7.85;;
65368;SDS011;51970;53.484;49.488;2023-03-01T04:03:31;9.25;;;4.20;;
65368;SDS011;51970;53.484;49.488;2023-03-01T04:05:58;12.23;;;7.00;;
65368;SDS011;51970;53.484;49.488;2023-03-01T04:08:25;11.27;;;4.90;;
65368;SDS011;51970;53.484;49.488;2023-03-01T04:10:52;10.93;;;4.93;;
65368;SDS011;51970;53.484;49.488;2023-03-01T04:13:22;9.05;;;4.00;;
65368;SDS011;51970;53.484;49.488;2023-03-01T04:15:51;9.43;;;4.22;;
65368;SDS011;51970;53.484;49.488;2023-03-01T04:18:19;10.85;;;5.00;;
65368;SDS011;51970;53.484;49.488;2023-03-01T04:20:47;10.23;;;4.88;;
65368;SDS011;51970;53.484;49.488;2023-03-01T04:23:16;7.72;;;3.47;;
65368;SDS011;51970;53.484;49.488;2023-03-01T04:25:47;10.23;;;3.47;;
65368;SDS011;51970;53.484;49.488;2023-03-01T04:28:21;11.98;;;4.63;;
65368;SDS011;51970;53.484;49.488;2023-03-01T04:30:53;12.80;;;4.40;;
65368;SDS011;51970;53.484;49.488;2023-03-01T04:33:20;9.05;;;4.72;;
65368;SDS011;51970;53.484;49.488;2023-03-01T04:35:48;10.57;;;6.38;;
65368;SDS011;51970;53.484;49.488;2023-03-01T04:38:17;10.60;;;4.35;;
65368;SDS011;51970;53.484;49.488;2023-03-01T04:40:44;7.95;;;3.95;;
65368;SDS011;51970;53.484;49.488;2023-03-01T04:43:11;8.63;;;3.92;;
65368;SDS011;51970;53.484;49.488;2023-03-01T04:45:41;9.88;;;4.38;;
65368;SDS011;51970;53.484;49.488;2023-03-01T04:48:07;10.00;;;5.00;;
65368;SDS011;51970;53.484;49.488;2023-03-01T04:50:35;13.68;;;5.35;;
65368;SDS011;51970;53.484;49.488;2023-03-01T04:53:01;10.13;;;4.57;;
65368;SDS011;51970;53.484;49.488;2023-03-01T04:55:28;5.20;;;2.50;;
65368;SDS011;51970;53.484;49.488;2023-03-01T04:57:56;7.35;;;3.47;;
65368;SDS011;51970;53.484;49.488;2023-03-01T05:00:23;6.93;;;3.53;;
65368;SDS011;51970;53.484;49.488;2023-03-01T05:02:51;10.02;;;7.03;;
65368;SDS011;51970;53.484;49.488;2023-03-01T05:05:24;8.95;;;4.20;;
65368;SDS011;51970;53.484;49.488;2023-03-01T05:08:00;8.63;;;4.05;;
65368;SDS011;51970;53.484;49.488;2023-03-01T05:10:29;8.98;;;4.35;;
65368;SDS011;51970;53.484;49.488;2023-03-01T05:12:57;13.65;;;4.85;;
65368;SDS011;51970;53.484;49.488;2023-03-01T05:15:28;11.00;;;4.63;;
65368;SDS011;51970;53.484;49.488;2023-03-01T05:17:56;8.75;;;4.18;;
65368;SDS011;51970;53.484;49.488;2023-03-01T05:20:25;10.32;;;5.55;;
65368;SDS011;51970;53.484;49.488;2023-03-01T05:22:56;7.32;;;3.63;;
65368;SDS011;51970;53.484;49.488;2023-03-01T05:25:24;9.75;;;4.07;;
65368;SDS011;51970;53.484;49.488;2023-03-01T05:27:51;9.90;;;6.85;;
65368;SDS011;51970;53.484;49.488;2023-03-01T05:31:04;10.70;;;4.82;;
65368;SDS011;51970;53.484;49.488;2023-03-01T05:33:45;11.13;;;5.00;;
65368;SDS011;51970;53.484;49.488;2023-03-01T05:36:19;11.30;;;4.95;;
65368;SDS011;51970;53.484;49.488;2023-03-01T05:38:53;14.73;;;6.95;;
65368;SDS011;51970;53.484;49.488;2023-03-01T05:41:27;9.88;;;5.05;;
65368;SDS011;51970;53.484;49.488;2023-03-01T05:44:05;8.88;;;5.05;;
65368;SDS011;51970;53.484;49.488;2023-03-01T05:46:36;7.88;;;4.78;;
65368;SDS011;51970;53.484;49.488;2023-03-01T05:49:02;9.20;;;4.30;;
65368;SDS011;51970;53.484;49.488;2023-03-01T05:51:47;10.35;;;5.57;;
65368;SDS011;51970;53.484;49.488;2023-03-01T05:54:19;9.38;;;4.70;;
65368;SDS011;51970;53.484;49.488;2023-03-01T05:57:12;9.90;;;4.68;;
65368;SDS011;51970;53.484;49.488;2023-03-01T06:07:19;8.65;;;5.35;;
65368;SDS011;51970;53.484;49.488;2023-03-01T06:10:12;8.75;;;4.10;;
65368;SDS011;51970;53.484;49.488;2023-03-01T06:15:48;9.88;;;4.10;;
65368;SDS011;51970;53.484;49.488;2023-03-01T06:18:28;10.40;;;5.03;;
65368;SDS011;51970;53.484;49.488;2023-03-01T06:21:01;8.95;;;5.05;;
65368;SDS011;51970;53.484;49.488;2023-03-01T06:29:34;9.75;;;4.57;;
65368;SDS011;51970;53.484;49.488;2023-03-01T06:32:04;8.93;;;3.78;;
65368;SDS011;51970;53.484;49.488;2023-03-01T06:34:37;9.30;;;4.45;;
65368;SDS011;51970;53.484;49.488;2023-03-01T06:37:20;10.07;;;5.40;;
65368;SDS011;51970;53.484;49.488;2023-03-01T06:39:51;7.65;;;3.63;;
65368;SDS011;51970;53.484;49.488;2023-03-01T06:42:47;10.43;;;5.93;;
65368;SDS011;51970;53.484;49.488;2023-03-01T06:45:19;8.15;;;4.53;;
65368;SDS011;51970;53.484;49.488;2023-03-01T06:48:19;9.45;;;4.75;;
65368;SDS011;51970;53.484;49.488;2023-03-01T06:51:33;10.05;;;5.00;;
65368;SDS011;51970;53.484;49.488;2023-03-01T06:54:26;9.60;;;4.93;;
65368;SDS011;51970;53.484;49.488;2023-03-01T06:57:28;6.28;;;3.30;;
65368;SDS011;51970;53.484;49.488;2023-03-01T07:00:35;6.45;;;3.30;;
65368;SDS011;51970;53.484;49.488;2023-03-01T07:03:42;8.52;;;4.13;;
65368;SDS011;51970;53.484;49.488;2023-03-01T07:06:34;5.38;;;2.70;;
65368;SDS011;51970;53.484;49.488;2023-03-01T07:09:27;8.20;;;2.22;;
65368;SDS011;51970;53.484;49.488;2023-03-01T07:12:25;7.28;;;3.22;;
65368;SDS011;51970;53.484;49.488;2023-03-01T07:14:54;5.60;;;2.25;;
65368;SDS011;51970;53.484;49.488;2023-03-01T07:17:43;7.43;;;2.35;;
65368;SDS011;51970;53.484;49.488;2023-03-01T07:21:17;6.07;;;2.58;;
65368;SDS011;51970;53.484;49.488;2023-03-01T07:23:48;6.97;;;2.00;;
65368;SDS011;51970;53.484;49.488;2023-03-01T07:26:32;5.65;;;2.60;;
65368;SDS011;51970;53.484;49.488;2023-03-01T07:29:34;4.70;;;2.33;;
65368;SDS011;51970;53.484;49.488;2023-03-01T07:32:22;9.35;;;2.78;;
65368;SDS011;51970;53.484;49.488;2023-03-01T07:35:21;5.07;;;3.00;;
65368;SDS011;51970;53.484;49.488;2023-03-01T07:37:56;6.18;;;2.40;;
65368;SDS011;51970;53.484;49.488;2023-03-01T07:40:27;6.60;;;2.55;;
65368;SDS011;51970;53.484;49.488;2023-03-01T07:43:00;7.45;;;2.47;;
65368;SDS011;51970;53.484;49.488;2023-03-01T07:46:16;7.10;;;2.35;;
65368;SDS011;51970;53.484;49.488;2023-03-01T07:49:17;6.80;;;3.55;;
65368;SDS011;51970;53.484;49.488;2023-03-01T07:52:06;5.45;;;2.50;;
65368;SDS011;51970;53.484;49.488;2023-03-01T07:56:06;6.53;;;2.80;;
65368;SDS011;51970;53.484;49.488;2023-03-01T07:58:37;5.05;;;1.80;;
65368;SDS011;51970;53.484;49.488;2023-03-01T08:01:05;6.35;;;2.47;;
65368;SDS011;51970;53.484;49.488;2023-03-01T08:03:32;4.80;;;1.92;;
65368;SDS011;51970;53.484;49.488;2023-03-01T08:06:01;4.60;;;2.20;;
65368;SDS011;51970;53.484;49.488;2023-03-01T08:08:29;6.95;;;2.42;;
65368;SDS011;51970;53.484;49.488;2023-03-01T08:10:56;7.38;;;2.78;;
65368;SDS011;51970;53.484;49.488;2023-03-01T08:13:23;6.22;;;2.60;;
65368;SDS011;51970;53.484;49.488;2023-03-01T08:15:50;9.05;;;2.83;;
65368;SDS011;51970;53.484;49.488;2023-03-01T08:18:16;9.23;;;2.83;;
65368;SDS011;51970;53.484;49.488;2023-03-01T08:20:43;6.82;;;2.63;;
65368;SDS011;51970;53.484;49.488;2023-03-01T08:23:10;5.38;;;2.45;;
65368;SDS011;51970;53.484;49.488;2023-03-01T08:25:37;4.07;;;1.52;;
65368;SDS011;51970;53.484;49.488;2023-03-01T08:28:03;3.63;;;1.92;;
65368;SDS011;51970;53.484;49.488;2023-03-01T08:30:30;3.67;;;1.80;;
65368;SDS011;51970;53.484;49.488;2023-03-01T08:32:57;5.28;;;2.65;;
65368;SDS011;51970;53.484;49.488;2023-03-01T08:35:23;5.40;;;2.53;;
65368;SDS011;51970;53.484;49.488;2023-03-01T08:37:49;12.93;;;3.53;;
65368;SDS011;51970;53.484;49.488;2023-03-01T08:40:15;6.05;;;1.95;;
65368;SDS011;51970;53.484;49.488;2023-03-01T08:42:42;5.00;;;1.75;;
65368;SDS011;51970;53.484;49.488;2023-03-01T08:45:09;4.22;;;1.88;;
65368;SDS011;51970;53.484;49.488;2023-03-01T08:47:36;4.72;;;2.40;;
65368;SDS011;51970;53.484;49.488;2023-03-01T08:50:03;5.07;;;2.85;;
65368;SDS011;51970;53.484;49.488;2023-03-01T08:52:29;4.95;;;1.90;;
65368;SDS011;51970;53.484;49.488;2023-03-01T08:54:57;6.30;;;3.38;;
65368;SDS011;51970;53.484;49.488;2023-03-01T08:57:23;3.08;;;1.35;;
65368;SDS011;51970;53.484;49.488;2023-03-01T08:59:49;4.43;;;2.63;;
65368;SDS011;51970;53.484;49.488;2023-03-01T09:02:17;6.63;;;2.20;;
65368;SDS011;51970;53.484;49.488;2023-03-01T09:04:44;7.03;;;3.67;;
65368;SDS011;51970;53.484;49.488;2023-03-01T09:07:10;5.88;;;2.42;;
65368;SDS011;51970;53.484;49.488;2023-03-01T09:09:36;5.95;;;1.98;;
65368;SDS011;51970;53.484;49.488;2023-03-01T09:12:03;4.13;;;1.55;;
65368;SDS011;51970;53.484;49.488;2023-03-01T09:14:30;6.25;;;3.10;;
65368;SDS011;51970;53.484;49.488;2023-03-01T09:16:56;5.60;;;2.38;;
65368;SDS011;51970;53.484;49.488;2023-03-01T09:19:23;5.07;;;2.55;;
65368;SDS011;51970;53.484;49.488;2023-03-01T09:21:50;5.47;;;2.25;;
65368;SDS011;51970;53.484;49.488;2023-03-01T09:24:23;11.90;;;3.78;;
65368;SDS011;51970;53.484;49.488;2023-03-01T09:26:52;5.35;;;2.42;;
65368;SDS011;51970;53.484;49.488;2023-03-01T09:29:20;7.45;;;3.10;;
65368;SDS011;51970;53.484;49.488;2023-03-01T09:31:46;9.35;;;4.10;;
65368;SDS011;51970;53.484;49.488;2023-03-01T09:34:12;4.05;;;1.85;;
65368;SDS011;51970;53.484;49.488;2023-03-01T09:36:42;6.25;;;2.55;;
65368;SDS011;51970;53.484;49.488;2023-03-01T09:39:08;12.05;;;2.42;;
65368;SDS011;51970;53.484;49.488;2023-03-01T09:47:18;4.97;;;2.25;;
65368;SDS011;51970;53.484;49.488;2023-03-01T09:50:04;5.72;;;3.15;;
65368;SDS011;51970;53.484;49.488;2023-03-01T09:55:21;4.00;;;2.10;;
65368;SDS011;51970;53.484;49.488;2023-03-01T09:57:56;5.68;;;2.10;;
65368;SDS011;51970;53.484;49.488;2023-03-01T10:00:39;5.18;;;3.30;;
65368;SDS011;51970;53.484;49.488;2023-03-01T10:08:31;11.50;;;2.38;;
65368;SDS011;51970;53.484;49.488;2023-03-01T10:11:16;6.53;;;2.45;;
65368;SDS011;51970;53.484;49.488;2023-03-01T10:13:58;8.00;;;2.95;;
65368;SDS011;51970;53.484;49.488;2023-03-01T10:16:32;7.10;;;3.33;;
65368;SDS011;51970;53.484;49.488;2023-03-01T10:19:00;4.63;;;2.08;;
65368;SDS011;51970;53.484;49.488;2023-03-01T10:21:29;5.18;;;1.98;;
65368;SDS011;51970;53.484;49.488;2023-03-01T10:24:05;4.22;;;2.47;;
65368;SDS011;51970;53.484;49.488;2023-03-01T10:26:40;4.07;;;2.65;;
65368;SDS011;51970;53.484;49.488;2023-03-01T10:29:14;6.10;;;3.13;;
65368;SDS011;51970;53.484;49.488;2023-03-01T10:31:48;8.52;;;2.90;;
65368;SDS011;51970;53.484;49.488;2023-03-01T10:34:17;5.15;;;1.85;;
65368;SDS011;51970;53.484;49.488;2023-03-01T10:36:53;5.05;;;2.00;;
65368;SDS011;51970;53.484;49.488;2023-03-01T10:39:24;5.55;;;2.22;;
65368;SDS011;51970;53.484;49.488;2023-03-01T10:41:52;6.50;;;2.45;;
65368;SDS011;51970;53.484;49.488;2023-03-01T10:45:00;5.70;;;3.25;;
65368;SDS011;51970;53.484;49.488;2023-03-01T10:47:34;4.75;;;2.28;;
65368;SDS011;51970;53.484;49.488;2023-03-01T10:50:31;3.60;;;1.90;;
65368;SDS011;51970;53.484;49.488;2023-03-01T10:53:41;4.65;;;1.98;;
65368;SDS011;51970;53.484;49.488;2023-03-01T10:56:10;8.52;;;2.80;;
65368;SDS011;51970;53.484;49.488;2023-03-01T10:59:03;4.93;;;1.67;;
65368;SDS011;51970;53.484;49.488;2023-03-01T11:04:30;3.70;;;1.50;;
65368;SDS011;51970;53.484;49.488;2023-03-01T11:07:00;3.95;;;2.45;;
65368;SDS011;51970;53.484;49.488;2023-03-01T11:09:31;3.22;;;1.40;;
65368;SDS011;51970;53.484;49.488;2023-03-01T11:12:05;5.72;;;2.92;;
65368;SDS011;51970;53.484;49.488;2023-03-01T11:14:48;4.75;;;2.38;;
65368;SDS011;51970;53.484;49.488;2023-03-01T11:23:01;3.90;;;1.83;;
65368;SDS011;51970;53.484;49.488;2023-03-01T11:25:54;8.52;;;4.07;;
65368;SDS011;51970;53.484;49.488;2023-03-01T11:28:25;4.85;;;2.10;;
65368;SDS011;51970;53.484;49.488;2023-03-01T11:31:43;6.28;;;2.13;;
65368;SDS011;51970;53.484;49.488;2023-03-01T11:34:40;4.65;;;2.70;;
65368;SDS011;51970;53.484;49.488;2023-03-01T11:50:52;5.75;;;1.60;;
65368;SDS011;51970;53.484;49.488;2023-03-01T12:04:28;4.65;;;3.78;;
65368;SDS011;51970;53.484;49.488;2023-03-01T12:10:17;4.30;;;3.05;;
65368;SDS011;51970;53.484;49.488;2023-03-01T12:39:12;3.97;;;1.48;;
65368;SDS011;51970;53.484;49.488;2023-03-01T12:42:00;4.05;;;2.20;;
65368;SDS011;51970;53.484;49.488;2023-03-01T12:51:54;4.85;;;1.65;;
65368;SDS011;51970;53.484;49.488;2023-03-01T12:54:28;6.35;;;2.45;;
65368;SDS011;51970;53.484;49.488;2023-03-01T12:56:58;5.35;;;4.05;;
65368;SDS011;51970;53.484;49.488;2023-03-01T12:59:51;11.93;;;2.83;;
65368;SDS011;51970;53.484;49.488;2023-03-01T13:05:42;5.80;;;2.03;;
65368;SDS011;51970;53.484;49.488;2023-03-01T13:08:33;4.80;;;1.63;;
65368;SDS011;51970;53.484;49.488;2023-03-01T13:11:14;3.85;;;1.83;;
65368;SDS011;51970;53.484;49.488;2023-03-01T13:13:45;4.05;;;1.80;;
65368;SDS011;51970;53.484;49.488;2023-03-01T13:21:37;7.80;;;2.10;;
65368;SDS011;51970;53.484;49.488;2023-03-01T13:24:22;8.20;;;2.83;;
65368;SDS011;51970;53.484;49.488;2023-03-01T13:27:11;6.78;;;2.45;;
65368;SDS011;51970;53.484;49.488;2023-03-01T13:29:48;7.57;;;4.45;;
65368;SDS011;51970;53.484;49.488;2023-03-01T13:32:35;7.50;;;3.25;;
65368;SDS011;51970;53.484;49.488;2023-03-01T13:37:43;3.63;;;1.50;;
65368;SDS011;51970;53.484;49.488;2023-03-01T13:42:53;3.63;;;1.73;;
65368;SDS011;51970;53.484;49.488;2023-03-01T13:45:34;7.00;;;2.45;;
65368;SDS011;51970;53.484;49.488;2023-03-01T13:48:15;6.90;;;2.90;;
65368;SDS011;51970;53.484;49.488;2023-03-01T13:51:10;4.75;;;3.10;;
65368;SDS011;51970;53.484;49.488;2023-03-01T13:53:42;5.03;;;1.45;;
65368;SDS011;51970;53.484;49.488;2023-03-01T13:56:12;8.00;;;1.55;;
65368;SDS011;51970;53.484;49.488;2023-03-01T14:01:30;6.25;;;1.77;;
65368;SDS011;51970;53.484;49.488;2023-03-01T14:03:58;2.80;;;1.73;;
65368;SDS011;51970;53.484;49.488;2023-03-01T14:06:29;3.80;;;2.38;;
65368;SDS011;51970;53.484;49.488;2023-03-01T14:12:00;5.45;;;3.65;;
65368;SDS011;51970;53.484;49.488;2023-03-01T14:20:33;4.78;;;1.77;;
65368;SDS011;51970;53.484;49.488;2023-03-01T14:23:24;5.65;;;2.17;;
65368;SDS011;51970;53.484;49.488;2023-03-01T14:25:56;3.28;;;1.50;;
65368;SDS011;51970;53.484;49.488;2023-03-01T14:31:00;3.95;;;1.88;;
65368;SDS011;51970;53.484;49.488;2023-03-01T14:33:34;5.05;;;3.55;;
65368;SDS011;51970;53.484;49.488;2023-03-01T14:36:11;5.80;;;2.30;;
65368;SDS011;51970;53.484;49.488;2023-03-01T14:39:15;3.72;;;1.98;;
65368;SDS011;51970;53.484;49.488;2023-03-01T14:41:48;6.05;;;2.50;;
65368;SDS011;51970;53.484;49.488;2023-03-01T14:44:21;4.93;;;2.70;;
65368;SDS011;51970;53.484;49.488;2023-03-01T14:46:52;3.80;;;1.75;;
65368;SDS011;51970;53.484;49.488;2023-03-01T14:49:29;5.30;;;1.77;;
65368;SDS011;51970;53.484;49.488;2023-03-01T14:52:07;7.60;;;3.85;;
65368;SDS011;51970;53.484;49.488;2023-03-01T14:54:50;4.95;;;2.83;;
65368;SDS011;51970;53.484;49.488;2023-03-01T14:57:19;5.53;;;2.50;;
65368;SDS011;51970;53.484;49.488;2023-03-01T14:59:47;7.40;;;1.63;;
65368;SDS011;51970;53.484;49.488;2023-03-01T15:02:17;9.32;;;2.40;;
65368;SDS011;51970;53.484;49.488;2023-03-01T15:04:50;3.72;;;1.80;;
65368;SDS011;51970;53.484;49.488;2023-03-01T15:07:18;6.55;;;1.88;;
65368;SDS011;51970;53.484;49.488;2023-03-01T15:09:47;3.58;;;1.55;;
65368;SDS011;51970;53.484;49.488;2023-03-01T15:12:25;4.88;;;1.88;;
65368;SDS011;51970;53.484;49.488;2023-03-01T15:14:54;3.78;;;1.60;;
65368;SDS011;51970;53.484;49.488;2023-03-01T15:19:54;9.68;;;2.85;;
65368;SDS011;51970;53.484;49.488;2023-03-01T15:22:20;4.85;;;2.20;;
65368;SDS011;51970;53.484;49.488;2023-03-01T15:24:50;7.00;;;2.35;;
65368;SDS011;51970;53.484;49.488;2023-03-01T15:27:17;4.18;;;1.98;;
65368;SDS011;51970;53.484;49.488;2023-03-01T15:29:48;5.32;;;1.90;;
65368;SDS011;51970;53.484;49.488;2023-03-01T15:32:31;6.47;;;2.00;;
65368;SDS011;51970;53.484;49.488;2023-03-01T15:35:00;6.05;;;2.53;;
65368;SDS011;51970;53.484;49.488;2023-03-01T15:37:47;4.35;;;2.03;;
65368;SDS011;51970;53.484;49.488;2023-03-01T15:42:58;4.90;;;2.80;;
65368;SDS011;51970;53.484;49.488;2023-03-01T15:45:26;4.03;;;1.55;;
65368;SDS011;51970;53.484;49.488;2023-03-01T15:47:58;6.43;;;2.90;;
65368;SDS011;51970;53.484;49.488;2023-03-01T15:50:31;4.60;;;2.15;;
65368;SDS011;51970;53.484;49.488;2023-03-01T15:53:00;8.88;;;2.22;;
65368;SDS011;51970;53.484;49.488;2023-03-01T15:55:31;8.63;;;2.47;;
65368;SDS011;51970;53.484;49.488;2023-03-01T15:58:18;5.28;;;1.92;;
65368;SDS011;51970;53.484;49.488;2023-03-01T16:00:49;5.65;;;3.13;;
65368;SDS011;51970;53.484;49.488;2023-03-01T16:03:21;4.50;;;2.00;;
65368;SDS011;51970;53.484;49.488;2023-03-01T16:05:49;5.68;;;1.98;;
65368;SDS011;51970;53.484;49.488;2023-03-01T16:08:16;4.30;;;2.03;;
65368;SDS011;51970;53.484;49.488;2023-03-01T16:10:44;8.25;;;3.13;;
65368;SDS011;51970;53.484;49.488;2023-03-01T16:13:11;6.38;;;2.70;;
65368;SDS011;51970;53.484;49.488;2023-03-01T16:15:38;5.75;;;3.40;;
65368;SDS011;51970;53.484;49.488;2023-03-01T16:18:05;3.38;;;1.83;;
65368;SDS011;51970;53.484;49.488;2023-03-01T16:20:33;4.25;;;1.77;;
65368;SDS011;51970;53.484;49.488;2023-03-01T16:23:04;4.68;;;1.98;;
65368;SDS011;51970;53.484;49.488;2023-03-01T16:25:33;5.47;;;3.00;;
65368;SDS011;51970;53.484;49.488;2023-03-01T16:28:01;5.10;;;2.15;;
65368;SDS011;51970;53.484;49.488;2023-03-01T16:30:30;7.70;;;2.70;;
65368;SDS011;51970;53.484;49.488;2023-03-01T16:33:01;5.68;;;1.60;;
65368;SDS011;51970;53.484;49.488;2023-03-01T16:35:27;6.43;;;2.25;;
65368;SDS011;51970;53.484;49.488;2023-03-01T16:37:54;7.75;;;4.13;;
65368;SDS011;51970;53.484;49.488;2023-03-01T16:40:22;3.90;;;1.73;;
65368;SDS011;51970;53.484;49.488;2023-03-01T16:42:57;6.50;;;2.45;;
65368;SDS011;51970;53.484;49.488;2023-03-01T16:45:27;3.25;;;1.88;;
65368;SDS011;51970;53.484;49.488;2023-03-01T16:47:58;4.75;;;2.20;;
65368;SDS011;51970;53.484;49.488;2023-03-01T16:50:30;5.30;;;1.58;;
65368;SDS011;51970;53.484;49.488;2023-03-01T16:52:57;7.53;;;2.05;;
65368;SDS011;51970;53.484;49.488;2023-03-01T16:55:23;5.22;;;2.88;;
65368;SDS011;51970;53.484;49.488;2023-03-01T16:57:51;4.25;;;1.90;;
65368;SDS011;51970;53.484;49.488;2023-03-01T17:00:17;5.00;;;2.40;;
65368;SDS011;51970;53.484;49.488;2023-03-01T17:02:44;4.43;;;2.13;;
65368;SDS011;51970;53.484;49.488;2023-03-01T17:05:11;3.67;;;2.17;;
65368;SDS011;51970;53.484;49.488;2023-03-01T17:07:37;2.83;;;1.48;;
65368;SDS011;51970;53.484;49.488;2023-03-01T17:10:07;4.97;;;1.88;;
65368;SDS011;51970;53.484;49.488;2023-03-01T17:12:36;3.50;;;1.83;;
65368;SDS011;51970;53.484;49.488;2023-03-01T17:15:03;5.63;;;1.88;;
65368;SDS011;51970;53.484;49.488;2023-03-01T17:17:30;4.10;;;2.65;;
65368;SDS011;51970;53.484;49.488;2023-03-01T17:19:57;4.55;;;1.70;;
65368;SDS011;51970;53.484;49.488;2023-03-01T17:22:26;5.90;;;2.50;;
65368;SDS011;51970;53.484;49.488;2023-03-01T17:24:53;5.45;;;2.67;;
65368;SDS011;51970;53.484;49.488;2023-03-01T17:27:19;4.50;;;2.33;;
65368;SDS011;51970;53.484;49.488;2023-03-01T17:29:45;4.25;;;1.80;;
65368;SDS011;51970;53.484;49.488;2023-03-01T17:32:12;3.42;;;1.92;;
65368;SDS011;51970;53.484;49.488;2023-03-01T17:34:39;4.82;;;2.90;;